sensor_id;sensor_type;location;lat;lon;timestamp;pressure;altitude;pressure_sealevel;temperature
20103;BMP180;10210;52.284;9.892;2022-09-27T00:00:38;98324.00;;;15.30
20103;BMP180;10210;52.284;9.892;2022-09-27T00:03:11;98317.00;;;15.30
20103;BMP180;10210;52.284;9.892;2022-09-27T00:05:37;98316.00;;;15.30
20103;BMP180;10210;52.284;9.892;2022-09-27T00:08:03;98304.00;;;15.30
20103;BMP180;10210;52.284;9.892;2022-09-27T00:10:30;98300.00;;;15.30
20103;BMP180;10210;52.284;9.892;2022-09-27T00:12:57;98308.00;;;15.30
20103;BMP180;10210;52.284;9.892;2022-09-27T00:15:22;98304.00;;;15.30
20103;BMP180;10210;52.284;9.892;2022-09-27T00:17:48;98309.00;;;15.30
20103;BMP180;10210;52.284;9.892;2022-09-27T00:20:19;98305.00;;;15.30
20103;BMP180;10210;52.284;9.892;2022-09-27T00:22:47;98310.00;;;15.30
20103;BMP180;10210;52.284;9.892;2022-09-27T00:25:13;98305.00;;;15.40
20103;BMP180;10210;52.284;9.892;2022-09-27T00:27:39;98308.00;;;15.40
20103;BMP180;10210;52.284;9.892;2022-09-27T00:30:05;98305.00;;;15.40
20103;BMP180;10210;52.284;9.892;2022-09-27T00:32:31;98300.00;;;15.40
20103;BMP180;10210;52.284;9.892;2022-09-27T00:34:57;98301.00;;;15.40
20103;BMP180;10210;52.284;9.892;2022-09-27T00:37:22;98297.00;;;15.50
20103;BMP180;10210;52.284;9.892;2022-09-27T00:39:48;98285.00;;;15.50
20103;BMP180;10210;52.284;9.892;2022-09-27T00:42:14;98287.00;;;15.50
20103;BMP180;10210;52.284;9.892;2022-09-27T00:47:21;98286.00;;;15.50
20103;BMP180;10210;52.284;9.892;2022-09-27T00:53:49;98279.00;;;15.50
20103;BMP180;10210;52.284;9.892;2022-09-27T00:55:56;98281.00;;;15.40
20103;BMP180;10210;52.284;9.892;2022-09-27T00:58:33;98271.00;;;15.40
20103;BMP180;10210;52.284;9.892;2022-09-27T01:01:04;98267.00;;;15.40
20103;BMP180;10210;52.284;9.892;2022-09-27T01:03:56;98264.00;;;15.40
20103;BMP180;10210;52.284;9.892;2022-09-27T01:06:24;98263.00;;;15.50
20103;BMP180;10210;52.284;9.892;2022-09-27T01:08:50;98268.00;;;15.50
20103;BMP180;10210;52.284;9.892;2022-09-27T01:11:47;98253.00;;;15.40
20103;BMP180;10210;52.284;9.892;2022-09-27T01:17:12;98262.00;;;15.50
20103;BMP180;10210;52.284;9.892;2022-09-27T01:23:22;98256.00;;;15.50
20103;BMP180;10210;52.284;9.892;2022-09-27T01:31:42;98256.00;;;15.60
20103;BMP180;10210;52.284;9.892;2022-09-27T01:34:30;98250.00;;;15.60
20103;BMP180;10210;52.284;9.892;2022-09-27T01:37:09;98251.00;;;15.60
20103;BMP180;10210;52.284;9.892;2022-09-27T01:42:38;98255.00;;;15.60
20103;BMP180;10210;52.284;9.892;2022-09-27T01:45:16;98252.00;;;15.60
20103;BMP180;10210;52.284;9.892;2022-09-27T01:47:49;98256.00;;;15.60
20103;BMP180;10210;52.284;9.892;2022-09-27T01:50:40;98243.00;;;15.60
20103;BMP180;10210;52.284;9.892;2022-09-27T01:53:30;98238.00;;;15.60
20103;BMP180;10210;52.284;9.892;2022-09-27T01:56:05;98232.00;;;15.60
20103;BMP180;10210;52.284;9.892;2022-09-27T01:58:41;98225.00;;;15.60
20103;BMP180;10210;52.284;9.892;2022-09-27T02:01:08;98240.00;;;15.60
20103;BMP180;10210;52.284;9.892;2022-09-27T02:03:39;98235.00;;;15.60
20103;BMP180;10210;52.284;9.892;2022-09-27T02:06:18;98238.00;;;15.60
20103;BMP180;10210;52.284;9.892;2022-09-27T02:09:07;98241.00;;;15.60
20103;BMP180;10210;52.284;9.892;2022-09-27T02:11:41;98239.00;;;15.60
20103;BMP180;10210;52.284;9.892;2022-09-27T02:14:32;98233.00;;;15.60
20103;BMP180;10210;52.284;9.892;2022-09-27T02:17:24;98231.00;;;15.60
20103;BMP180;10210;52.284;9.892;2022-09-27T02:23:06;98234.00;;;15.60
20103;BMP180;10210;52.284;9.892;2022-09-27T02:25:39;98228.00;;;15.60
20103;BMP180;10210;52.284;9.892;2022-09-27T02:30:38;98229.00;;;15.70
20103;BMP180;10210;52.284;9.892;2022-09-27T02:33:04;98224.00;;;15.70
20103;BMP180;10210;52.284;9.892;2022-09-27T02:35:34;98227.00;;;15.70
20103;BMP180;10210;52.284;9.892;2022-09-27T02:38:02;98230.00;;;15.70
20103;BMP180;10210;52.284;9.892;2022-09-27T02:40:35;98218.00;;;15.70
20103;BMP180;10210;52.284;9.892;2022-09-27T02:43:06;98223.00;;;15.70
20103;BMP180;10210;52.284;9.892;2022-09-27T03:04:33;98213.00;;;15.70
20103;BMP180;10210;52.284;9.892;2022-09-27T03:07:01;98207.00;;;15.70
20103;BMP180;10210;52.284;9.892;2022-09-27T03:09:40;98216.00;;;15.70
20103;BMP180;10210;52.284;9.892;2022-09-27T03:12:05;98220.00;;;15.70
20103;BMP180;10210;52.284;9.892;2022-09-27T03:14:31;98214.00;;;15.70
20103;BMP180;10210;52.284;9.892;2022-09-27T03:16:57;98211.00;;;15.70
20103;BMP180;10210;52.284;9.892;2022-09-27T03:19:22;98219.00;;;15.70
20103;BMP180;10210;52.284;9.892;2022-09-27T03:21:49;98214.00;;;15.70
20103;BMP180;10210;52.284;9.892;2022-09-27T03:24:15;98215.00;;;15.70
20103;BMP180;10210;52.284;9.892;2022-09-27T03:26:40;98212.00;;;15.70
20103;BMP180;10210;52.284;9.892;2022-09-27T03:29:06;98208.00;;;15.70
20103;BMP180;10210;52.284;9.892;2022-09-27T03:31:31;98214.00;;;15.70
20103;BMP180;10210;52.284;9.892;2022-09-27T03:33:57;98214.00;;;15.70
20103;BMP180;10210;52.284;9.892;2022-09-27T03:36:23;98211.00;;;15.60
20103;BMP180;10210;52.284;9.892;2022-09-27T03:38:48;98220.00;;;15.60
20103;BMP180;10210;52.284;9.892;2022-09-27T03:41:14;98215.00;;;15.60
20103;BMP180;10210;52.284;9.892;2022-09-27T03:43:40;98221.00;;;15.70
20103;BMP180;10210;52.284;9.892;2022-09-27T03:46:05;98215.00;;;15.70
20103;BMP180;10210;52.284;9.892;2022-09-27T03:48:31;98208.00;;;15.70
20103;BMP180;10210;52.284;9.892;2022-09-27T03:50:57;98217.00;;;15.70
20103;BMP180;10210;52.284;9.892;2022-09-27T03:53:22;98214.00;;;15.70
20103;BMP180;10210;52.284;9.892;2022-09-27T03:55:49;98215.00;;;15.60
20103;BMP180;10210;52.284;9.892;2022-09-27T03:58:14;98215.00;;;15.60
20103;BMP180;10210;52.284;9.892;2022-09-27T04:00:40;98211.00;;;15.60
20103;BMP180;10210;52.284;9.892;2022-09-27T04:03:07;98221.00;;;15.60
20103;BMP180;10210;52.284;9.892;2022-09-27T04:05:32;98211.00;;;15.60
20103;BMP180;10210;52.284;9.892;2022-09-27T04:07:58;98211.00;;;15.60
20103;BMP180;10210;52.284;9.892;2022-09-27T04:10:24;98213.00;;;15.60
20103;BMP180;10210;52.284;9.892;2022-09-27T04:12:50;98213.00;;;15.60
20103;BMP180;10210;52.284;9.892;2022-09-27T04:15:16;98217.00;;;15.60
20103;BMP180;10210;52.284;9.892;2022-09-27T04:17:42;98212.00;;;15.60
20103;BMP180;10210;52.284;9.892;2022-09-27T04:20:10;98216.00;;;15.60
20103;BMP180;10210;52.284;9.892;2022-09-27T04:22:39;98222.00;;;15.60
20103;BMP180;10210;52.284;9.892;2022-09-27T04:25:07;98219.00;;;15.60
20103;BMP180;10210;52.284;9.892;2022-09-27T04:27:34;98219.00;;;15.60
20103;BMP180;10210;52.284;9.892;2022-09-27T04:29:59;98217.00;;;15.60
20103;BMP180;10210;52.284;9.892;2022-09-27T04:32:26;98222.00;;;15.60
20103;BMP180;10210;52.284;9.892;2022-09-27T04:34:52;98224.00;;;15.60
20103;BMP180;10210;52.284;9.892;2022-09-27T04:37:36;98230.00;;;15.50
20103;BMP180;10210;52.284;9.892;2022-09-27T04:40:03;98231.00;;;15.50
20103;BMP180;10210;52.284;9.892;2022-09-27T04:42:29;98229.00;;;15.50
20103;BMP180;10210;52.284;9.892;2022-09-27T04:44:55;98236.00;;;15.50
20103;BMP180;10210;52.284;9.892;2022-09-27T04:47:21;98235.00;;;15.50
20103;BMP180;10210;52.284;9.892;2022-09-27T04:49:47;98237.00;;;15.40
20103;BMP180;10210;52.284;9.892;2022-09-27T04:52:14;98238.00;;;15.40
20103;BMP180;10210;52.284;9.892;2022-09-27T04:54:40;98239.00;;;15.40
20103;BMP180;10210;52.284;9.892;2022-09-27T04:57:06;98242.00;;;15.40
20103;BMP180;10210;52.284;9.892;2022-09-27T04:59:32;98233.00;;;15.40
20103;BMP180;10210;52.284;9.892;2022-09-27T05:01:58;98246.00;;;15.40
20103;BMP180;10210;52.284;9.892;2022-09-27T05:04:25;98241.00;;;15.40
20103;BMP180;10210;52.284;9.892;2022-09-27T05:06:52;98243.00;;;15.40
20103;BMP180;10210;52.284;9.892;2022-09-27T05:09:18;98250.00;;;15.40
20103;BMP180;10210;52.284;9.892;2022-09-27T05:11:44;98250.00;;;15.40
20103;BMP180;10210;52.284;9.892;2022-09-27T05:14:10;98252.00;;;15.40
20103;BMP180;10210;52.284;9.892;2022-09-27T05:16:36;98266.00;;;15.30
20103;BMP180;10210;52.284;9.892;2022-09-27T05:19:02;98260.00;;;15.30
20103;BMP180;10210;52.284;9.892;2022-09-27T05:21:28;98262.00;;;15.30
20103;BMP180;10210;52.284;9.892;2022-09-27T05:23:54;98270.00;;;15.30
20103;BMP180;10210;52.284;9.892;2022-09-27T05:26:20;98270.00;;;15.30
20103;BMP180;10210;52.284;9.892;2022-09-27T05:28:45;98272.00;;;15.30
20103;BMP180;10210;52.284;9.892;2022-09-27T05:31:12;98271.00;;;15.30
20103;BMP180;10210;52.284;9.892;2022-09-27T05:33:39;98266.00;;;15.30
20103;BMP180;10210;52.284;9.892;2022-09-27T05:36:06;98284.00;;;15.30
20103;BMP180;10210;52.284;9.892;2022-09-27T05:38:32;98270.00;;;15.30
20103;BMP180;10210;52.284;9.892;2022-09-27T05:40:59;98280.00;;;15.30
20103;BMP180;10210;52.284;9.892;2022-09-27T05:43:26;98271.00;;;15.30
20103;BMP180;10210;52.284;9.892;2022-09-27T05:45:53;98280.00;;;15.20
20103;BMP180;10210;52.284;9.892;2022-09-27T05:48:19;98278.00;;;15.30
20103;BMP180;10210;52.284;9.892;2022-09-27T05:50:46;98278.00;;;15.20
20103;BMP180;10210;52.284;9.892;2022-09-27T05:53:12;98275.00;;;15.20
20103;BMP180;10210;52.284;9.892;2022-09-27T05:55:38;98285.00;;;15.30
20103;BMP180;10210;52.284;9.892;2022-09-27T05:58:07;98289.00;;;15.30
20103;BMP180;10210;52.284;9.892;2022-09-27T06:00:33;98288.00;;;15.30
20103;BMP180;10210;52.284;9.892;2022-09-27T06:03:03;98285.00;;;15.30
20103;BMP180;10210;52.284;9.892;2022-09-27T06:05:34;98287.00;;;15.30
20103;BMP180;10210;52.284;9.892;2022-09-27T06:08:11;98297.00;;;15.30
20103;BMP180;10210;52.284;9.892;2022-09-27T06:10:38;98299.00;;;15.30
20103;BMP180;10210;52.284;9.892;2022-09-27T06:13:09;98300.00;;;15.30
20103;BMP180;10210;52.284;9.892;2022-09-27T06:15:37;98302.00;;;15.30
20103;BMP180;10210;52.284;9.892;2022-09-27T06:18:10;98307.00;;;15.30
20103;BMP180;10210;52.284;9.892;2022-09-27T06:20:37;98307.00;;;15.30
20103;BMP180;10210;52.284;9.892;2022-09-27T06:23:15;98297.00;;;15.20
20103;BMP180;10210;52.284;9.892;2022-09-27T06:25:43;98310.00;;;15.30
20103;BMP180;10210;52.284;9.892;2022-09-27T06:28:11;98307.00;;;15.30
20103;BMP180;10210;52.284;9.892;2022-09-27T06:30:41;98310.00;;;15.30
20103;BMP180;10210;52.284;9.892;2022-09-27T06:33:12;98309.00;;;15.20
20103;BMP180;10210;52.284;9.892;2022-09-27T06:35:38;98313.00;;;15.20
20103;BMP180;10210;52.284;9.892;2022-09-27T06:38:13;98315.00;;;15.20
20103;BMP180;10210;52.284;9.892;2022-09-27T06:40:42;98321.00;;;15.20
20103;BMP180;10210;52.284;9.892;2022-09-27T06:43:15;98319.00;;;15.20
20103;BMP180;10210;52.284;9.892;2022-09-27T06:45:41;98323.00;;;15.20
20103;BMP180;10210;52.284;9.892;2022-09-27T06:48:10;98322.00;;;15.20
20103;BMP180;10210;52.284;9.892;2022-09-27T06:50:39;98326.00;;;15.20
20103;BMP180;10210;52.284;9.892;2022-09-27T06:53:08;98332.00;;;15.20
20103;BMP180;10210;52.284;9.892;2022-09-27T06:55:35;98331.00;;;15.20
20103;BMP180;10210;52.284;9.892;2022-09-27T06:58:02;98338.00;;;15.20
20103;BMP180;10210;52.284;9.892;2022-09-27T07:00:51;98335.00;;;15.20
20103;BMP180;10210;52.284;9.892;2022-09-27T07:03:19;98335.00;;;15.20
20103;BMP180;10210;52.284;9.892;2022-09-27T07:05:55;98338.00;;;15.20
20103;BMP180;10210;52.284;9.892;2022-09-27T07:08:22;98338.00;;;15.20
20103;BMP180;10210;52.284;9.892;2022-09-27T07:10:48;98352.00;;;15.20
20103;BMP180;10210;52.284;9.892;2022-09-27T07:13:14;98350.00;;;15.20
20103;BMP180;10210;52.284;9.892;2022-09-27T07:15:40;98351.00;;;15.20
20103;BMP180;10210;52.284;9.892;2022-09-27T07:18:07;98355.00;;;15.20
20103;BMP180;10210;52.284;9.892;2022-09-27T07:20:34;98353.00;;;15.20
20103;BMP180;10210;52.284;9.892;2022-09-27T07:23:02;98353.00;;;15.30
20103;BMP180;10210;52.284;9.892;2022-09-27T07:25:29;98367.00;;;15.30
20103;BMP180;10210;52.284;9.892;2022-09-27T07:28:04;98373.00;;;15.30
20103;BMP180;10210;52.284;9.892;2022-09-27T07:30:31;98368.00;;;15.20
20103;BMP180;10210;52.284;9.892;2022-09-27T07:33:02;98372.00;;;15.20
20103;BMP180;10210;52.284;9.892;2022-09-27T07:35:28;98377.00;;;15.20
20103;BMP180;10210;52.284;9.892;2022-09-27T07:37:56;98377.00;;;15.20
20103;BMP180;10210;52.284;9.892;2022-09-27T07:40:22;98373.00;;;15.20
20103;BMP180;10210;52.284;9.892;2022-09-27T07:42:57;98382.00;;;15.30
20103;BMP180;10210;52.284;9.892;2022-09-27T07:45:27;98383.00;;;15.30
20103;BMP180;10210;52.284;9.892;2022-09-27T07:47:53;98385.00;;;15.30
20103;BMP180;10210;52.284;9.892;2022-09-27T07:50:19;98382.00;;;15.30
20103;BMP180;10210;52.284;9.892;2022-09-27T07:52:48;98391.00;;;15.30
20103;BMP180;10210;52.284;9.892;2022-09-27T07:55:17;98390.00;;;15.30
20103;BMP180;10210;52.284;9.892;2022-09-27T07:57:44;98395.00;;;15.30
20103;BMP180;10210;52.284;9.892;2022-09-27T08:00:14;98398.00;;;15.30
20103;BMP180;10210;52.284;9.892;2022-09-27T08:02:42;98397.00;;;15.30
20103;BMP180;10210;52.284;9.892;2022-09-27T08:05:09;98410.00;;;15.30
20103;BMP180;10210;52.284;9.892;2022-09-27T08:07:35;98403.00;;;15.30
20103;BMP180;10210;52.284;9.892;2022-09-27T08:10:02;98414.00;;;15.30
20103;BMP180;10210;52.284;9.892;2022-09-27T08:12:28;98416.00;;;15.30
20103;BMP180;10210;52.284;9.892;2022-09-27T08:14:53;98418.00;;;15.30
20103;BMP180;10210;52.284;9.892;2022-09-27T08:17:22;98432.00;;;15.20
20103;BMP180;10210;52.284;9.892;2022-09-27T08:19:48;98429.00;;;15.20
20103;BMP180;10210;52.284;9.892;2022-09-27T08:22:14;98433.00;;;15.20
20103;BMP180;10210;52.284;9.892;2022-09-27T08:24:40;98432.00;;;15.20
20103;BMP180;10210;52.284;9.892;2022-09-27T08:27:06;98436.00;;;15.20
20103;BMP180;10210;52.284;9.892;2022-09-27T08:29:36;98452.00;;;15.20
20103;BMP180;10210;52.284;9.892;2022-09-27T08:32:02;98445.00;;;15.20
20103;BMP180;10210;52.284;9.892;2022-09-27T08:34:28;98450.00;;;15.20
20103;BMP180;10210;52.284;9.892;2022-09-27T08:36:54;98456.00;;;15.20
20103;BMP180;10210;52.284;9.892;2022-09-27T08:39:21;98464.00;;;15.20
20103;BMP180;10210;52.284;9.892;2022-09-27T08:45:17;98463.00;;;15.20
20103;BMP180;10210;52.284;9.892;2022-09-27T08:47:52;98457.00;;;15.20
20103;BMP180;10210;52.284;9.892;2022-09-27T08:50:36;98464.00;;;15.20
20103;BMP180;10210;52.284;9.892;2022-09-27T08:53:23;98471.00;;;15.20
20103;BMP180;10210;52.284;9.892;2022-09-27T08:55:56;98474.00;;;15.20
20103;BMP180;10210;52.284;9.892;2022-09-27T08:58:47;98478.00;;;15.20
20103;BMP180;10210;52.284;9.892;2022-09-27T09:01:16;98480.00;;;15.30
20103;BMP180;10210;52.284;9.892;2022-09-27T09:03:58;98470.00;;;15.40
20103;BMP180;10210;52.284;9.892;2022-09-27T09:06:48;98474.00;;;15.50
20103;BMP180;10210;52.284;9.892;2022-09-27T09:09:40;98466.00;;;15.50
20103;BMP180;10210;52.284;9.892;2022-09-27T09:12:32;98469.00;;;15.70
20103;BMP180;10210;52.284;9.892;2022-09-27T09:20:33;98480.00;;;16.10
20103;BMP180;10210;52.284;9.892;2022-09-27T09:23:41;98485.00;;;16.10
20103;BMP180;10210;52.284;9.892;2022-09-27T09:34:39;98478.00;;;16.30
20103;BMP180;10210;52.284;9.892;2022-09-27T09:37:29;98480.00;;;16.40
20103;BMP180;10210;52.284;9.892;2022-09-27T09:43:14;98489.00;;;16.40
20103;BMP180;10210;52.284;9.892;2022-09-27T09:45:56;98489.00;;;16.30
20103;BMP180;10210;52.284;9.892;2022-09-27T09:49:12;98489.00;;;16.20
20103;BMP180;10210;52.284;9.892;2022-09-27T09:51:45;98486.00;;;16.30
20103;BMP180;10210;52.284;9.892;2022-09-27T09:54:30;98489.00;;;16.30
20103;BMP180;10210;52.284;9.892;2022-09-27T09:57:24;98492.00;;;16.30
20103;BMP180;10210;52.284;9.892;2022-09-27T09:59:58;98489.00;;;16.30
20103;BMP180;10210;52.284;9.892;2022-09-27T10:02:36;98491.00;;;16.40
20103;BMP180;10210;52.284;9.892;2022-09-27T10:05:04;98482.00;;;16.50
20103;BMP180;10210;52.284;9.892;2022-09-27T10:07:33;98483.00;;;16.60
20103;BMP180;10210;52.284;9.892;2022-09-27T10:10:04;98486.00;;;16.70
20103;BMP180;10210;52.284;9.892;2022-09-27T10:12:30;98490.00;;;16.70
20103;BMP180;10210;52.284;9.892;2022-09-27T10:15:04;98477.00;;;16.70
20103;BMP180;10210;52.284;9.892;2022-09-27T10:17:41;98484.00;;;16.70
20103;BMP180;10210;52.284;9.892;2022-09-27T10:20:46;98488.00;;;16.60
20103;BMP180;10210;52.284;9.892;2022-09-27T10:23:20;98487.00;;;16.70
20103;BMP180;10210;52.284;9.892;2022-09-27T10:25:49;98481.00;;;16.70
20103;BMP180;10210;52.284;9.892;2022-09-27T10:28:34;98483.00;;;16.80
20103;BMP180;10210;52.284;9.892;2022-09-27T10:31:17;98477.00;;;16.90
20103;BMP180;10210;52.284;9.892;2022-09-27T10:33:58;98480.00;;;16.90
20103;BMP180;10210;52.284;9.892;2022-09-27T10:36:30;98473.00;;;17.00
20103;BMP180;10210;52.284;9.892;2022-09-27T10:38:59;98478.00;;;17.10
20103;BMP180;10210;52.284;9.892;2022-09-27T10:41:37;98487.00;;;17.10
20103;BMP180;10210;52.284;9.892;2022-09-27T10:46:43;98483.00;;;17.10
20103;BMP180;10210;52.284;9.892;2022-09-27T10:49:40;98482.00;;;17.20
20103;BMP180;10210;52.284;9.892;2022-09-27T10:52:17;98484.00;;;17.20
20103;BMP180;10210;52.284;9.892;2022-09-27T10:54:59;98492.00;;;17.30
20103;BMP180;10210;52.284;9.892;2022-09-27T10:57:29;98496.00;;;17.30
20103;BMP180;10210;52.284;9.892;2022-09-27T10:59:59;98498.00;;;17.40
20103;BMP180;10210;52.284;9.892;2022-09-27T11:02:33;98508.00;;;17.30
20103;BMP180;10210;52.284;9.892;2022-09-27T11:05:35;98511.00;;;17.10
20103;BMP180;10210;52.284;9.892;2022-09-27T11:08:20;98511.00;;;17.00
20103;BMP180;10210;52.284;9.892;2022-09-27T11:13:40;98503.00;;;16.90
20103;BMP180;10210;52.284;9.892;2022-09-27T11:34:04;98501.00;;;16.50
20103;BMP180;10210;52.284;9.892;2022-09-27T11:37:14;98510.00;;;16.50
20103;BMP180;10210;52.284;9.892;2022-09-27T11:43:25;98525.00;;;16.40
20103;BMP180;10210;52.284;9.892;2022-09-27T11:46:19;98523.00;;;16.40
20103;BMP180;10210;52.284;9.892;2022-09-27T11:57:41;98526.00;;;16.50
20103;BMP180;10210;52.284;9.892;2022-09-27T12:00:18;98527.00;;;16.60
20103;BMP180;10210;52.284;9.892;2022-09-27T12:06:20;98543.00;;;16.50
20103;BMP180;10210;52.284;9.892;2022-09-27T12:09:15;98548.00;;;16.50
20103;BMP180;10210;52.284;9.892;2022-09-27T12:11:52;98550.00;;;16.50
20103;BMP180;10210;52.284;9.892;2022-09-27T12:14:34;98555.00;;;16.40
20103;BMP180;10210;52.284;9.892;2022-09-27T12:17:08;98560.00;;;16.40
20103;BMP180;10210;52.284;9.892;2022-09-27T12:19:42;98562.00;;;16.40
20103;BMP180;10210;52.284;9.892;2022-09-27T12:22:15;98572.00;;;16.40
20103;BMP180;10210;52.284;9.892;2022-09-27T12:24:44;98565.00;;;16.50
20103;BMP180;10210;52.284;9.892;2022-09-27T12:29:54;98580.00;;;16.40
20103;BMP180;10210;52.284;9.892;2022-09-27T12:35:28;98578.00;;;16.20
20103;BMP180;10210;52.284;9.892;2022-09-27T12:40:57;98589.00;;;16.00
20103;BMP180;10210;52.284;9.892;2022-09-27T12:43:28;98578.00;;;15.90
20103;BMP180;10210;52.284;9.892;2022-09-27T12:49:40;98566.00;;;15.40
20103;BMP180;10210;52.284;9.892;2022-09-27T12:52:20;98593.00;;;15.30
20103;BMP180;10210;52.284;9.892;2022-09-27T12:58:36;98586.00;;;15.00
20103;BMP180;10210;52.284;9.892;2022-09-27T13:01:33;98580.00;;;15.00
20103;BMP180;10210;52.284;9.892;2022-09-27T13:07:19;98583.00;;;15.00
20103;BMP180;10210;52.284;9.892;2022-09-27T13:12:49;98583.00;;;15.00
20103;BMP180;10210;52.284;9.892;2022-09-27T13:15:28;98587.00;;;15.00
20103;BMP180;10210;52.284;9.892;2022-09-27T13:18:00;98592.00;;;15.00
20103;BMP180;10210;52.284;9.892;2022-09-27T13:25:55;98597.00;;;15.10
20103;BMP180;10210;52.284;9.892;2022-09-27T13:31:08;98597.00;;;15.00
20103;BMP180;10210;52.284;9.892;2022-09-27T13:33:51;98596.00;;;15.10
20103;BMP180;10210;52.284;9.892;2022-09-27T13:47:35;98605.00;;;15.10
20103;BMP180;10210;52.284;9.892;2022-09-27T13:50:25;98611.00;;;15.10
20103;BMP180;10210;52.284;9.892;2022-09-27T13:53:28;98602.00;;;15.00
20103;BMP180;10210;52.284;9.892;2022-09-27T13:55:55;98603.00;;;15.10
20103;BMP180;10210;52.284;9.892;2022-09-27T13:58:44;98601.00;;;15.10
20103;BMP180;10210;52.284;9.892;2022-09-27T14:01:32;98608.00;;;15.00
20103;BMP180;10210;52.284;9.892;2022-09-27T14:04:28;98598.00;;;15.00
20103;BMP180;10210;52.284;9.892;2022-09-27T14:06:59;98609.00;;;15.00
20103;BMP180;10210;52.284;9.892;2022-09-27T14:09:37;98606.00;;;15.00
20103;BMP180;10210;52.284;9.892;2022-09-27T14:12:16;98601.00;;;15.00
20103;BMP180;10210;52.284;9.892;2022-09-27T14:14:44;98605.00;;;15.00
20103;BMP180;10210;52.284;9.892;2022-09-27T14:17:12;98591.00;;;15.00
20103;BMP180;10210;52.284;9.892;2022-09-27T14:19:42;98604.00;;;14.90
20103;BMP180;10210;52.284;9.892;2022-09-27T14:22:17;98601.00;;;15.00
20103;BMP180;10210;52.284;9.892;2022-09-27T14:24:51;98600.00;;;15.00
20103;BMP180;10210;52.284;9.892;2022-09-27T14:27:28;98604.00;;;15.00
20103;BMP180;10210;52.284;9.892;2022-09-27T14:30:07;98612.00;;;15.00
20103;BMP180;10210;52.284;9.892;2022-09-27T14:32:50;98603.00;;;15.00
20103;BMP180;10210;52.284;9.892;2022-09-27T14:35:23;98614.00;;;15.00
20103;BMP180;10210;52.284;9.892;2022-09-27T14:38:14;98608.00;;;15.00
20103;BMP180;10210;52.284;9.892;2022-09-27T14:40:58;98611.00;;;15.10
20103;BMP180;10210;52.284;9.892;2022-09-27T14:43:27;98609.00;;;15.10
20103;BMP180;10210;52.284;9.892;2022-09-27T14:45:59;98614.00;;;15.20
20103;BMP180;10210;52.284;9.892;2022-09-27T14:48:36;98616.00;;;15.20
20103;BMP180;10210;52.284;9.892;2022-09-27T14:53:55;98633.00;;;15.30
20103;BMP180;10210;52.284;9.892;2022-09-27T14:56:29;98630.00;;;15.30
20103;BMP180;10210;52.284;9.892;2022-09-27T14:59:12;98636.00;;;15.20
20103;BMP180;10210;52.284;9.892;2022-09-27T15:01:47;98642.00;;;15.20
20103;BMP180;10210;52.284;9.892;2022-09-27T15:04:15;98643.00;;;15.20
20103;BMP180;10210;52.284;9.892;2022-09-27T15:06:41;98641.00;;;15.10
20103;BMP180;10210;52.284;9.892;2022-09-27T15:09:12;98647.00;;;15.00
20103;BMP180;10210;52.284;9.892;2022-09-27T15:11:40;98645.00;;;15.00
20103;BMP180;10210;52.284;9.892;2022-09-27T15:14:12;98637.00;;;15.00
20103;BMP180;10210;52.284;9.892;2022-09-27T15:16:40;98643.00;;;14.90
20103;BMP180;10210;52.284;9.892;2022-09-27T15:19:25;98647.00;;;14.90
20103;BMP180;10210;52.284;9.892;2022-09-27T15:21:54;98634.00;;;14.90
20103;BMP180;10210;52.284;9.892;2022-09-27T15:24:37;98639.00;;;14.80
20103;BMP180;10210;52.284;9.892;2022-09-27T15:27:20;98645.00;;;14.80
20103;BMP180;10210;52.284;9.892;2022-09-27T15:29:53;98644.00;;;14.70
20103;BMP180;10210;52.284;9.892;2022-09-27T15:32:23;98649.00;;;14.70
20103;BMP180;10210;52.284;9.892;2022-09-27T15:34:50;98649.00;;;14.70
20103;BMP180;10210;52.284;9.892;2022-09-27T15:37:35;98644.00;;;14.60
20103;BMP180;10210;52.284;9.892;2022-09-27T15:40:47;98650.00;;;14.60
20103;BMP180;10210;52.284;9.892;2022-09-27T15:46:00;98641.00;;;14.60
20103;BMP180;10210;52.284;9.892;2022-09-27T15:48:30;98635.00;;;14.60
20103;BMP180;10210;52.284;9.892;2022-09-27T15:50:57;98636.00;;;14.60
20103;BMP180;10210;52.284;9.892;2022-09-27T15:56:04;98638.00;;;14.60
20103;BMP180;10210;52.284;9.892;2022-09-27T15:58:34;98641.00;;;14.60
20103;BMP180;10210;52.284;9.892;2022-09-27T16:01:04;98636.00;;;14.60
20103;BMP180;10210;52.284;9.892;2022-09-27T16:03:33;98635.00;;;14.60
20103;BMP180;10210;52.284;9.892;2022-09-27T16:06:01;98624.00;;;14.70
20103;BMP180;10210;52.284;9.892;2022-09-27T16:08:28;98632.00;;;14.70
20103;BMP180;10210;52.284;9.892;2022-09-27T16:10:58;98643.00;;;14.70
20103;BMP180;10210;52.284;9.892;2022-09-27T16:13:24;98640.00;;;14.70
20103;BMP180;10210;52.284;9.892;2022-09-27T16:15:52;98643.00;;;14.80
20103;BMP180;10210;52.284;9.892;2022-09-27T16:18:18;98643.00;;;14.80
20103;BMP180;10210;52.284;9.892;2022-09-27T16:20:44;98628.00;;;14.90
20103;BMP180;10210;52.284;9.892;2022-09-27T16:23:10;98629.00;;;14.90
20103;BMP180;10210;52.284;9.892;2022-09-27T16:25:36;98639.00;;;14.90
20103;BMP180;10210;52.284;9.892;2022-09-27T16:28:03;98635.00;;;14.90
20103;BMP180;10210;52.284;9.892;2022-09-27T16:30:30;98640.00;;;14.90
20103;BMP180;10210;52.284;9.892;2022-09-27T16:32:56;98635.00;;;14.90
20103;BMP180;10210;52.284;9.892;2022-09-27T16:35:23;98634.00;;;14.90
20103;BMP180;10210;52.284;9.892;2022-09-27T16:37:49;98634.00;;;14.90
20103;BMP180;10210;52.284;9.892;2022-09-27T16:40:16;98625.00;;;14.90
20103;BMP180;10210;52.284;9.892;2022-09-27T16:42:47;98635.00;;;14.90
20103;BMP180;10210;52.284;9.892;2022-09-27T16:45:14;98635.00;;;14.90
20103;BMP180;10210;52.284;9.892;2022-09-27T16:47:43;98625.00;;;14.90
20103;BMP180;10210;52.284;9.892;2022-09-27T16:50:13;98629.00;;;14.90
20103;BMP180;10210;52.284;9.892;2022-09-27T16:52:58;98630.00;;;14.90
20103;BMP180;10210;52.284;9.892;2022-09-27T16:55:27;98632.00;;;14.90
20103;BMP180;10210;52.284;9.892;2022-09-27T16:57:57;98633.00;;;14.90
20103;BMP180;10210;52.284;9.892;2022-09-27T17:00:23;98634.00;;;14.90
20103;BMP180;10210;52.284;9.892;2022-09-27T17:02:48;98635.00;;;14.90
20103;BMP180;10210;52.284;9.892;2022-09-27T17:05:15;98629.00;;;14.90
20103;BMP180;10210;52.284;9.892;2022-09-27T17:07:41;98635.00;;;14.90
20103;BMP180;10210;52.284;9.892;2022-09-27T17:10:07;98630.00;;;14.90
20103;BMP180;10210;52.284;9.892;2022-09-27T17:12:34;98634.00;;;14.90